ADDS METAR Data INFO
IDs: Format: Raw Decoded Include TAF

Data at: 0646 UTC 23 Feb 2018

KC09 230635Z AUTO 11009KT 1 3/4SM BR OVC004 05/04 A3021 RMK AO2 T00450040
KC09 230615Z AUTO 12008KT 2SM BR OVC004 05/04 A3024 RMK AO2 T00450040
KC09 230555Z AUTO 13009KT 1 1/2SM BR OVC004 05/04 A3026 RMK AO2 T00450040 10050 20040 400571015
KC09 230535Z AUTO 13008KT 1 3/4SM BR OVC004 05/04 A3027 RMK AO2 T00450040
KC09 230515Z AUTO 13009KT 2 1/2SM BR OVC004 05/04 A3027 RMK AO2 T00450040
KC09 230455Z AUTO 13011G17KT 2 1/2SM BR OVC004 05/04 A3028 RMK AO2 T00460040
KC09 230435Z AUTO 13012KT 2SM BR OVC006 05/04 A3028 RMK AO2 T00470038
KC09 230415Z AUTO 13010KT 7SM OVC008 05/04 A3029 RMK AO2 T00480036
KC09 230355Z AUTO 12010KT 10SM OVC010 05/03 A3029 RMK AO2 T00480033
KC09 230335Z AUTO 11007KT 10SM OVC010 05/03 A3031 RMK AO2 T00480034
KC09 230315Z AUTO 10009KT 10SM OVC010 05/03 A3031 RMK AO2 T00480032
KC09 230255Z AUTO 09010KT 10SM OVC010 05/03 A3031 RMK AO2 T00470032
KC09 230235Z AUTO 08008KT 10SM OVC010 05/03 A3030 RMK AO2 T00470031
KC09 230215Z AUTO 10011KT 10SM OVC010 05/03 A3028 RMK AO2 T00460031
KC09 230155Z AUTO 09013KT 10SM OVC010 04/03 A3030 RMK AO2 T00410025
KC09 230135Z AUTO 09009KT 10SM OVC012 04/02 A3033 RMK AO2 T00400022
KC09 230115Z AUTO 09009KT 10SM OVC012 04/02 A3036 RMK AO2 T00400023
KC09 230055Z AUTO 08008KT 10SM OVC012 04/02 A3037 RMK AO2 T00400022
KC09 230035Z AUTO 09010KT 10SM OVC014 04/02 A3037 RMK AO2 T00410022
KC09 230015Z AUTO 09008KT 10SM OVC014 04/02 A3037 RMK AO2 T00420020
KC09 222355Z AUTO 07007KT 10SM OVC016 04/02 A3038 RMK AO2 T00440015 10057 20043
KC09 222335Z AUTO 06005KT 10SM OVC016 04/01 A3039 RMK AO2 T00430013
KC09 222315Z AUTO 06004KT 10SM OVC018 05/01 A3040 RMK AO2 T00470013
KC09 222255Z AUTO 06004KT 10SM OVC018 05/01 A3039 RMK AO2 T00480012
KC09 222235Z AUTO 07008KT 10SM OVC020 05/01 A3038 RMK AO2 T00480011
KC09 222215Z AUTO 08009KT 10SM OVC020 05/01 A3037 RMK AO2 T00480011
KC09 222155Z AUTO 08012KT 10SM OVC020 05/01 A3034 RMK AO2 T00500012
KC09 222135Z AUTO 08016KT 10SM OVC020 05/02 A3034 RMK AO2 T00520017
KC09 222115Z AUTO 08012KT 10SM OVC022 05/02 A3036 RMK AO2 T00540017
KC09 222055Z AUTO 08012G17KT 10SM OVC022 05/02 A3038 RMK AO2 T00530016
KC09 222035Z AUTO 09010KT 10SM OVC022 06/02 A3040 RMK AO2 T00550019
KC09 222015Z AUTO 08012KT 10SM OVC022 06/02 A3038 RMK AO2 T00560020
KC09 221955Z AUTO 08013KT 10SM OVC022 06/02 A3039 RMK AO2 T00550017
KC09 221935Z AUTO 08013KT 10SM OVC024 06/02 A3041 RMK AO2 T00570018
KC09 221915Z AUTO 08015G18KT 10SM BKN026 OVC033 06/02 A3041 RMK AO2 T00560017
KC09 221855Z AUTO 07012KT 10SM OVC035 06/02 A3043 RMK AO2 T00560016
KC09 221835Z AUTO 09013G18KT 10SM SCT037 OVC044 06/02 A3043 RMK AO2 T00550016
KC09 221815Z AUTO 09012G17KT 10SM BKN044 OVC050 05/01 A3045 RMK AO2 T00500010
KC09 221755Z AUTO 07012G17KT 10SM SCT024 OVC048 05/01 A3047 RMK AO2 T00510010 10051 20000
KC09 221735Z AUTO 07009G14KT 10SM SCT024 OVC048 05/01 A3048 RMK AO2 T00450006
KC09 221715Z AUTO 06007KT 020V080 10SM SCT050 OVC120 05/01 A3049 RMK AO2 T00450008
KC09 221655Z AUTO 06010G16KT 10SM BKN050 OVC120 04/00 A3048 RMK AO2 T00400004
KC09 221635Z AUTO 05006G14KT 10SM OVC050 03/00 A3050 RMK AO2 T00320000
KC09 221615Z AUTO 07010G16KT 10SM BKN050 BKN070 02/00 A3050 RMK AO2 T00221005
KC09 221555Z AUTO 07008KT 10SM SCT070 SCT090 SCT110 02/M01 A3050 RMK AO2 T00181006
KC09 221535Z AUTO 07011G15KT 10SM -RA SCT070 BKN090 BKN110 01/M01 A3051 RMK AO2 T00141010
KC09 221515Z AUTO 05004KT 10SM SCT055 OVC070 01/M01 A3053 RMK AO2 T00111011
KC09 221455Z AUTO 06006KT 10SM OVC080 01/M01 A3052 RMK AO2 T00081015
KC09 221435Z AUTO 06006KT 10SM SCT065 OVC080 01/M01 A3052 RMK AO2 T00081015
KC09 221415Z AUTO 06008KT 10SM SCT075 OVC090 01/M02 A3052 RMK AO2 T00071017
KC09 221355Z AUTO 06007KT 10SM OVC100 01/M02 A3052 RMK AO2 T00051016
KC09 221335Z AUTO 04005KT 10SM SCT075 OVC100 00/M02 A3052 RMK AO2 T00031018
KC09 221315Z AUTO 06006KT 10SM BKN080 OVC090 00/M02 A3051 RMK AO2 T00021018
KC09 221255Z AUTO 05005KT 10SM BKN100 OVC120 00/M02 A3051 RMK AO2 T00001020
KC09 221235Z AUTO 05005KT 10SM OVC110 00/M02 A3051 RMK AO2 T00001020
KC09 221215Z AUTO 05005KT 10SM SCT070 OVC110 00/M02 A3051 RMK AO2 T00001022
KC09 221155Z AUTO 05006KT 10SM BKN070 OVC120 00/M02 A3051 RMK AO2 T00001022 10000 21015
KC09 221135Z AUTO 05005KT 10SM SCT070 OVC120 00/M02 A3050 RMK AO2 T00001023
KC09 221115Z AUTO 04005KT 10SM BKN070 OVC120 00/M02 A3050 RMK AO2 T00001023
KC09 221055Z AUTO 04005KT 10SM OVC070 00/M02 A3050 RMK AO2 T00001025
KC09 221035Z AUTO 05006KT 10SM OVC070 00/M02 A3050 RMK AO2 T10011025
KC09 221015Z AUTO 06004KT 10SM SCT070 BKN120 00/M03 A3050 RMK AO2 T10031027
KC09 220955Z AUTO 06005KT 10SM SCT070 00/M03 A3050 RMK AO2 T10051030
KC09 220935Z AUTO 05006KT 10SM CLR M01/M03 A3050 RMK AO2 T10061030
KC09 220915Z AUTO 05005KT 10SM CLR M01/M03 A3050 RMK AO2 T10071030
KC09 220855Z AUTO 05006KT 10SM SCT075 M01/M03 A3050 RMK AO2 T10071033
KC09 220835Z AUTO 05007KT 10SM OVC075 M01/M04 A3051 RMK AO2 T10081036
KC09 220815Z AUTO 04005KT 10SM BKN075 M01/M04 A3053 RMK AO2 T10081036
KC09 220755Z AUTO 04006KT 10SM CLR M01/M04 A3054 RMK AO2 T10101038
KC09 220735Z AUTO 04007KT 10SM CLR M01/M04 A3054 RMK AO2 T10101040
KC09 220715Z AUTO 04007KT 10SM CLR M01/M04 A3055 RMK AO2 T10111041
KC09 220655Z AUTO 04006KT 10SM CLR M01/M04 A3054 RMK AO2 T10131043
KC09 220635Z AUTO 04005KT 10SM CLR M01/M05 A3054 RMK AO2 T10151046
KC09 220615Z AUTO 05005KT 10SM CLR M01/M05 A3054 RMK AO2 T10151046
KC09 220555Z AUTO 06007KT 10SM CLR M01/M05 A3054 RMK AO2 T10151051 11002 21016 400031021
KC09 220535Z AUTO 05006KT 10SM CLR M02/M05 A3055 RMK AO2 T10161054
KC09 220515Z AUTO 05005KT 10SM CLR M02/M05 A3056 RMK AO2 T10161053
KC09 220455Z AUTO 05005KT 10SM CLR M02/M05 A3057 RMK AO2 T10161055
KC09 220435Z AUTO 05005KT 10SM CLR M01/M06 A3059 RMK AO2 T10151056
KC09 220415Z AUTO 05007KT 10SM CLR M01/M05 A3061 RMK AO2 T10151055
KC09 220355Z AUTO 05006KT 10SM CLR M01/M05 A3061 RMK AO2 T10151055
KC09 220035Z AUTO 06006KT 10SM CLR M01/M06 A3060 RMK AO2 T10061056
KC09 220015Z AUTO 05003KT 10SM CLR 00/M04 A3061 RMK AO2 T10051045
KC09 212355Z AUTO 06005KT 10SM CLR 00/M04 A3059 RMK AO2 T10021045 10003 21011
KC09 212335Z AUTO 06004KT 10SM CLR 00/M05 A3059 RMK AO2 T00001047
KC09 212315Z AUTO 04005KT 10SM CLR 00/M04 A3058 RMK AO2 T00001040
KC09 212255Z AUTO 03004KT 10SM CLR 00/M04 A3058 RMK AO2 T00001045
KC09 212235Z AUTO 02004KT 10SM CLR 00/M04 A3057 RMK AO2 T00011044
KC09 212215Z AUTO 02003KT 10SM CLR 00/M05 A3057 RMK AO2 T00021048
KC09 212155Z AUTO 01004KT 10SM CLR 00/M04 A3057 RMK AO2 T00011043
KC09 212135Z AUTO 02005KT 10SM CLR 00/M04 A3056 RMK AO2 T00021041
KC09 212115Z AUTO 01005KT 10SM CLR 00/M04 A3056 RMK AO2 T00031038
KC09 212055Z AUTO 01005KT 10SM CLR 00/M04 A3056 RMK AO2 T00021040
KC09 212035Z AUTO 01005KT 10SM CLR 00/M04 A3056 RMK AO2 T00001041
KC09 212015Z AUTO 03004KT 10SM CLR 00/M04 A3056 RMK AO2 T00011038
KC09 211955Z AUTO 02005KT 10SM CLR 00/M05 A3056 RMK AO2 T10011048
KC09 211935Z AUTO 02005KT 10SM CLR 00/M05 A3056 RMK AO2 T10011049
KC09 211915Z AUTO 02004KT 10SM CLR 00/M05 A3056 RMK AO2 T10021047
KC09 211855Z AUTO 01004KT 10SM CLR 00/M04 A3057 RMK AO2 T10041045